Etusivu
METAR-TAF:

METAR-TAF

Lentoasemat :

Brunei, Brunei

Leveyspiiri: 04-56N, Pituuspiiri: 114-56E, korkeus merenpinnasta: 22 m

Tämänhetkinen sää

Tämä raportti tehtiin 28 minuuttia sitten, kello 01.00 UTC
Tuuli 6 kn koillisesta
Lämpötila 29°C
Kosteus 84%
Ilmanpaine 1010 hPa
Näkyvyys 10 km tai enemmän
Muutamia pilviä 1400 ft:n korkeudessa
Hajonneita pilviä 30000 ft:n korkeudessa

METAR: WBSB 280100Z 04006KT 9999 FEW014 BKN300 29/26 Q1010 NOSIG

Aika: 09:28 (01:28 UTC)

Sääennuste

Tämä raportti tehtiin 2 tuntia ja 38 minuuttia sitten, kello 22.50 UTC
Ennuste voimassa 28. päivästä klo 00 UTC - 29. päivään klo 06 UTC
Tuuli 6 kn koillisesta
Näkyvyys 10 km tai enemmän
Muutamia pilviä 1500 ft:n korkeudessa
Tulossa
28. päivästä klo 04 UTC - 28. päivään klo 06 UTC
Tuuli 10 kn pohjoisesta
Muutamia pilviä 1600 ft:n korkeudessa
Muutamia pilviä 1700 ft:n korkeudessa, Cumulonimbus.

TAF: WBSB 272250Z 2800/2906 04006KT 9999 FEW015 BECMG 2804/2806 01010KT FEW016 FEW017CB

Säähavainnot ja -ennusteet yli 4000 lentoasemalta (METAR- ja TAF-raportit).

Käytössä olevat sääasemat on merkitty karttaan keltaisilla ja punaisilla pisteillä.

Aseta hiiri pisteen päälle nähdäksesi sääaseman nimen.

Klikkaa sitten nähdäksesi säähavainnot ja -ennusteet.

Kartan vaihtaminen: klikkaa mustalla rastilla varustettuja vihreitä pisteitä, niin voit zoomata sisään; viivalla varustettua vihreää pistettä, niin voit zoomata ulos tai vihreitä nuolia, niin pääset viereisille kartoille.


METAR-TAF: